Terminal Aerodrome Forecast
Issued by NWS

Home | Current Version | Previous Version | Text Only | Print | Product List | Glossary On
Versions: 1 2 3 4 5 6 7 8 9 10 11 12 13 14 15 16 17 18
000
FTUS43 KILX 262348
TAFBMI
TAF
KBMI 262348Z 2700/2724 18008KT P6SM VCSH SCT060 BKN200
     FM270100 21006KT P6SM VCTS SCT050CB BKN200
      TEMPO 2702/2705 4SM TSRA BR BKN030CB OVC050
     FM270500 16004KT P6SM VCTS OVC050CB
     FM271000 VRB05KT 5SM -SHRA BR OVC015
     FM271500 01004KT P6SM VCTS OVC025CB=

USA.gov is the U.S. government's official web portal to all federal, state and local government web resources and services.